Flight Track Log - Related Links

Times and Time Zones

All times are in EDT time to prevent confusion due to time zone crossing. See the N913FD flight status page for this flight to view local times or setup timezone preferences in your user account.

Time Position Orientation Groundspeed Altitude Reporting Facility
EDT Latitude Longitude Course Direction KTS MPH feet Rate Location/Type
Fri 08:43:23 AM 41.5472 -93.6606 309° West 156 180 1,400  Level Minneapolis Center
Fri 08:44:11 AM 41.5725 -93.7028 309° West 172 198 3,400 2,680 Climbing Minneapolis Center
Fri 08:45:06 AM 41.5769 -93.7900 274° West 233 268 6,000 2,852 Climbing Minneapolis Center
Fri 08:46:13 AM 41.5253 -93.8433 218° Southwest 291 335 9,200 1,935 Climbing Minneapolis Center
Fri 08:47:10 AM 41.4478 -93.7839 150° Southeast 323 372 10,000 706 Climbing Minneapolis Center
Fri 08:48:12 AM 41.3608 -93.7019 145° Southeast 383 441 10,600 1,951 Climbing Minneapolis Center
Fri 08:49:13 AM 41.2633 -93.6142 146° Southeast 393 452 14,000 2,711 Climbing Minneapolis Center
Fri 08:50:27 AM 41.1697 -93.5275 145° Southeast 409 471 16,700 2,189 Climbing Minneapolis Center
Fri 08:51:41 AM 41.0600 -93.4272 145° Southeast 419 482 19,400 2,083 Climbing Minneapolis Center
Fri 08:57:42 AM 40.3870 -92.8170 145° Southeast 469 540 31,800 2,010 Climbing FlightAware ADS-B
Fri 08:58:27 AM 40.3060 -92.7450 146° Southeast 467 537 33,000 1,553 Climbing FlightAware ADS-B
Fri 08:59:07 AM 40.2340 -92.6810 146° Southeast 473 544 34,000 1,650 Climbing FlightAware ADS-B
Fri 08:59:47 AM 40.1610 -92.6160 146° Southeast 468 539 35,200 1,694 Climbing FlightAware ADS-B
Fri 09:00:32 AM 40.0760 -92.5660 156° South 455 524 36,400 1,271 Climbing FlightAware ADS-B
Fri 09:01:12 AM 39.9940 -92.5300 161° South 461 531 37,000 480 Climbing FlightAware ADS-B
Fri 09:01:47 AM 39.9230 -92.5010 163° South 463 533 37,000  Level FlightAware ADS-B
Fri 09:02:37 AM 39.8210 -92.4560 161° South 462 532 37,000  Level FlightAware ADS-B
Fri 09:03:17 AM 39.7380 -92.4220 163° South 456 525 37,000  Level FlightAware ADS-B
Fri 09:03:52 AM 39.6790 -92.3960 161° South 454 522 37,000 -776 Level FlightAware ADS-B
Fri 09:04:42 AM 39.5720 -92.3510 162° South 450 518 35,900 -1,412 Descending FlightAware ADS-B
Fri 09:05:17 AM 39.5020 -92.3220 162° South 443 510 35,000 -635 Descending FlightAware ADS-B
Fri 09:06:07 AM 39.4110 -92.2820 161° South 441 507 35,000  Level FlightAware ADS-B
Fri 09:06:57 AM 39.3110 -92.2390 162° South 444 511 35,000  Level FlightAware ADS-B
Fri 09:07:37 AM 39.2450 -92.2100 161° South 444 511 35,000  Level FlightAware ADS-B
Fri 09:08:27 AM 39.1620 -92.1730 161° South 444 511 35,000  Level FlightAware ADS-B
Fri 09:09:07 AM 39.0960 -92.1440 161° South 444 511 35,000  Level FlightAware ADS-B
Fri 09:09:52 AM 38.9650 -92.0960 164° South 441 507 35,000  Level FlightAware ADS-B
Fri 09:10:32 AM 38.8890 -92.0640 162° South 442 509 35,000  Level FlightAware ADS-B
Fri 09:11:07 AM 38.8260 -92.0380 162° South 442 509 35,000  Level FlightAware ADS-B
Fri 09:11:57 AM 38.7440 -92.0040 162° South 442 509 35,000  Level FlightAware ADS-B
Fri 09:12:37 AM 38.6770 -91.9760 162° South 442 509 35,000  Level FlightAware ADS-B
Fri 09:13:17 AM 38.6110 -91.9480 162° South 442 509 35,000  Level FlightAware ADS-B
Fri 09:13:57 AM 38.5450 -91.9210 162° South 442 509 35,000  Level FlightAware ADS-B
Fri 09:14:37 AM 38.4790 -91.8940 162° South 442 509 35,000  Level FlightAware ADS-B
Fri 09:15:27 AM 38.3960 -91.8590 162° South 442 509 35,000  Level FlightAware ADS-B
Fri 09:16:17 AM 38.3140 -91.8250 162° South 442 509 35,000  Level FlightAware ADS-B
Fri 09:16:57 AM 38.2480 -91.7980 162° South 442 509 35,000  Level FlightAware ADS-B
Fri 09:17:37 AM 38.1810 -91.7700 162° South 442 509 35,000  Level FlightAware ADS-B
Fri 09:18:17 AM 38.1150 -91.7430 162° South 442 509 35,000  Level FlightAware ADS-B
Fri 09:18:57 AM 38.0490 -91.7160 162° South 442 509 35,000  Level FlightAware ADS-B
Fri 09:19:47 AM 37.9670 -91.6820 162° South 442 509 35,000  Level FlightAware ADS-B
Fri 09:20:27 AM 37.9000 -91.6540 162° South 442 509 35,000 -1,304 Level FlightAware ADS-B
Fri 09:21:19 AM 37.6342 -91.5531 162° South 442 509 33,000 -1,053 Descending Kansas City Center
Fri 09:22:21 AM 37.5136 -91.5044 162° South 449 517 33,000  Level Kansas City Center
Fri 09:23:22 AM 37.3922 -91.4572 163° South 453 521 33,000  Level Kansas City Center
Fri 09:24:24 AM 37.2742 -91.4097 162° South 446 513 33,000  Level Kansas City Center
Fri 09:25:26 AM 37.1553 -91.3642 163° South 444 511 33,000  Level Kansas City Center
Fri 09:26:20 AM 37.0428 -91.3158 161° South 452 520 33,000  Level Memphis Center
Fri 09:27:20 AM 36.9161 -91.2728 165° South 439 505 33,000  Level Memphis Center
Fri 09:28:20 AM 36.8039 -91.2225 160° South 434 499 33,000  Level Memphis Center
Fri 09:29:20 AM 36.6875 -91.1797 164° South 434 499 33,000  Level Memphis Center
Fri 09:30:20 AM 36.5731 -91.1347 162° South 434 499 33,000  Level Memphis Center
Fri 09:31:20 AM 36.4525 -91.0922 164° South 439 505 33,000 -1,200 Level Memphis Center
Fri 09:32:20 AM 36.3422 -91.0475 162° South 439 505 30,600 -3,350 Descending Memphis Center
Fri 09:33:20 AM 36.2217 -91.0003 162° South 440 506 26,300 -2,850 Descending Memphis Center
Fri 09:34:20 AM 36.1008 -90.9556 163° South 446 513 24,900 -1,850 Descending Memphis Center
Fri 09:35:20 AM 35.9925 -90.9292 169° South 426 490 22,600 -2,300 Descending Memphis Center
Fri 09:36:20 AM 35.8886 -90.9003 167° South 407 468 20,300 -2,250 Descending Memphis Center
Fri 09:37:20 AM 35.7864 -90.8714 167° South 389 448 18,100 -1,950 Descending Memphis Center
Fri 09:38:20 AM 35.7053 -90.8506 168° South 378 435 16,400 -2,100 Descending Memphis Center
Fri 09:39:20 AM 35.5886 -90.8217 169° South 366 421 13,900 -2,550 Descending Memphis Center
Fri 09:40:20 AM 35.4925 -90.7956 168° South 360 414 11,300 -1,550 Descending Memphis Center
Fri 09:41:20 AM 35.4367 -90.7189 132° Southeast 302 348 10,800 -750 Descending Memphis Center
Fri 09:42:20 AM 35.4200 -90.6247 102° East 279 321 9,800 -1,100 Descending Memphis Center
Fri 09:43:20 AM 35.4203 -90.5253 90° East 268 308 8,600 -1,200 Descending Memphis Center
Fri 09:44:20 AM 35.4183 -90.4333 91° East 274 315 7,400 -1,000 Descending Memphis Center
Fri 09:45:20 AM 35.4161 -90.3444 92° East 261 300 6,600 -700 Descending Memphis Center
Fri 09:46:20 AM 35.4142 -90.2628 92° East 246 283 6,000 -500 Descending Memphis Center
Fri 09:47:20 AM 35.4119 -90.1814 92° East 236 272 5,600 -500 Descending Memphis Center
Fri 09:48:20 AM 35.4117 -90.1075 90° East 236 272 5,000 -500 Descending Memphis Center
Fri 09:49:20 AM 35.4117 -90.0336 90° East 230 265 4,600 -500 Descending Memphis Center
Fri 09:50:20 AM 35.3656 -89.9981 148° Southeast 186 214 4,000 -391 Descending Memphis Center
Fri 09:50:52 AM 35.3333 -90.0000 183° South 203 234 4,000  Level KMEM
Fri 09:51:49 AM 35.2833 -89.9833 165° South 201 231 4,000 -150 Level KMEM
Fri 09:52:52 AM 35.2333 -89.9833 180° South 175 201 3,700 -564 Descending KMEM
Fri 09:53:46 AM 35.1833 -89.9833 180° South 180 207 2,900 -865 Descending KMEM
Fri 09:54:43 AM 35.1333 -89.9833 180° South 148 170 2,100 -730 Descending KMEM
Fri 09:55:41 AM 35.1000 -89.9833 180° South 112 129 1,500 -672 Descending KMEM
Fri 09:56:39 AM 35.0667 -89.9833 180° South 117 135 800 -724 Descending KMEM
Fri 09:58:00 AM 35.0424 -89.9767 156° South  Level Estimated
Fri 10:05:00 AM 35.0424 -89.9767 156° South  Level Estimated
Fri 10:06:00 AM 35.0424 -89.9767 156° South  Level Estimated
Fri 10:07:00 AM 35.0424 -89.9767 156° South  Level Estimated
Fri 10:08:00 AM 35.0424 -89.9767 156° South  Level Estimated
Fri 10:09:00 AM 35.0424 -89.9767 156° South  Level Estimated
Fri 10:10:00 AM 35.0424 -89.9767 156° South  Level Estimated

Login

Don't have an account? Register now (free) for customized features, flight alerts, and more!